Time;durP1;ratioP1;P1;durP2;ratioP2;P2;SDS_P1;SDS_P2;PMS_P1;PMS_P2;Temp;Humidity;BMP_temperature;BMP_pressure;BME280_temperature;BME280_humidity;BME280_pressure;Samples;Min_cycle;Max_cycle;Signal;HPM_P1;HPM_P2
2023/05/05 00:01:18;;;;;;;6.77;4.00;;;20.70;47.10;;;;;;5055309;28;20511;-57
2023/05/05 00:03:45;;;;;;;6.87;4.47;;;20.70;47.70;;;;;;5055164;28;20492;-57
2023/05/05 00:06:12;;;;;;;5.63;4.10;;;20.60;48.10;;;;;;5055239;28;20453;-57
2023/05/05 00:08:40;;;;;;;5.27;4.23;;;20.60;48.40;;;;;;5054743;28;20491;-57
2023/05/05 00:11:06;;;;;;;6.10;4.33;;;20.60;48.60;;;;;;5054771;28;20540;-57
2023/05/05 00:13:33;;;;;;;8.20;4.40;;;20.60;49.00;;;;;;5055046;28;20469;-57
2023/05/05 00:16:00;;;;;;;8.90;5.30;;;20.50;49.20;;;;;;5055081;28;20457;-57
2023/05/05 00:18:27;;;;;;;5.53;4.23;;;20.50;49.70;;;;;;5054989;28;20464;-57
2023/05/05 00:20:53;;;;;;;5.53;4.80;;;20.40;49.80;;;;;;5054900;28;20445;-57
2023/05/05 00:23:20;;;;;;;8.40;5.00;;;20.40;50.00;;;;;;5054478;28;20499;-57
2023/05/05 00:25:48;;;;;;;8.23;4.20;;;20.40;50.70;;;;;;5054875;28;20510;-57
2023/05/05 00:28:15;;;;;;;9.47;5.43;;;20.30;51.40;;;;;;5054716;28;20516;-57
2023/05/05 00:30:41;;;;;;;8.10;5.10;;;20.30;51.90;;;;;;5054758;28;20464;-57
2023/05/05 00:33:08;;;;;;;5.87;4.17;;;20.20;52.20;;;;;;5054794;28;20449;-57
2023/05/05 00:35:35;;;;;;;14.47;5.63;;;20.20;52.30;;;;;;5054616;28;20468;-57
2023/05/05 00:38:03;;;;;;;10.40;4.23;;;20.20;52.50;;;;;;5054652;28;20442;-57
2023/05/05 00:40:30;;;;;;;8.87;5.30;;;20.10;52.50;;;;;;5054603;28;20456;-57
2023/05/05 00:42:59;;;;;;;9.37;4.93;;;20.10;52.70;;;;;;5054560;28;20449;-57
2023/05/05 00:45:26;;;;;;;7.30;4.30;;;20.10;53.10;;;;;;5054600;28;21023;-57
2023/05/05 00:47:54;;;;;;;8.97;5.00;;;20.10;53.50;;;;;;5054473;28;20449;-57
2023/05/05 00:50:23;;;;;;;14.73;5.50;;;20.10;54.00;;;;;;5054560;28;20457;-57
2023/05/05 00:52:52;;;;;;;7.37;4.80;;;20.00;54.40;;;;;;5054557;28;20457;-57
2023/05/05 00:55:19;;;;;;;8.40;5.20;;;20.00;54.70;;;;;;5054624;28;20466;-57
2023/05/05 00:57:47;;;;;;;17.13;6.50;;;19.90;54.80;;;;;;5054612;28;20445;-57
2023/05/05 01:00:15;;;;;;;13.63;5.10;;;19.90;55.40;;;;;;5054385;28;20445;-57
2023/05/05 01:02:42;;;;;;;8.70;5.67;;;19.90;56.00;;;;;;5054232;28;20485;-57
2023/05/05 01:05:12;;;;;;;10.13;4.97;;;19.80;56.40;;;;;;5054000;28;20462;-57
2023/05/05 01:07:47;;;;;;;7.37;6.00;;;19.80;57.00;;;;;;5054326;28;20503;-57
2023/05/05 01:10:22;;;;;;;14.40;5.00;;;19.70;57.60;;;;;;5054899;28;20414;-57
2023/05/05 01:12:58;;;;;;;8.33;5.30;;;19.70;58.20;;;;;;5057241;28;20547;-57
2023/05/05 01:15:32;;;;;;;9.80;5.70;;;19.70;58.70;;;;;;5058537;28;20485;-57
2023/05/05 01:18:06;;;;;;;6.97;6.07;;;19.60;59.80;;;;;;5057887;28;20437;-57
2023/05/05 01:20:39;;;;;;;8.63;5.90;;;19.60;59.80;;;;;;5055647;28;20434;-57
2023/05/05 01:23:07;;;;;;;9.30;5.97;;;19.60;60.10;;;;;;5054694;28;20433;-57
2023/05/05 01:25:51;;;;;;;7.00;6.13;;;19.60;60.70;;;;;;5054611;28;20461;-57
2023/05/05 01:28:30;;;;;;;6.77;6.10;;;19.50;61.10;;;;;;5053916;28;20469;-57
2023/05/05 01:31:09;;;;;;;6.17;5.57;;;19.50;61.60;;;;;;5053612;28;20445;-57
2023/05/05 01:33:44;;;;;;;6.00;5.40;;;19.40;62.50;;;;;;5053977;28;20467;-57
2023/05/05 01:36:21;;;;;;;10.43;5.50;;;19.30;63.30;;;;;;5053774;28;20433;-57
2023/05/05 01:38:58;;;;;;;6.73;6.10;;;19.30;64.00;;;;;;5053776;28;20425;-57
2023/05/05 01:41:29;;;;;;;8.40;6.60;;;19.20;64.80;;;;;;5053595;28;20433;-57
2023/05/05 01:43:59;;;;;;;12.70;6.77;;;19.10;66.50;;;;;;5053419;28;20986;-57
2023/05/05 01:46:27;;;;;;;7.77;6.53;;;19.10;67.70;;;;;;5053556;28;20468;-57
2023/05/05 01:48:56;;;;;;;7.17;6.40;;;19.00;68.20;;;;;;5053522;28;20477;-57
2023/05/05 01:51:26;;;;;;;8.83;6.97;;;19.00;68.90;;;;;;5053481;28;20449;-57
2023/05/05 01:53:56;;;;;;;9.43;6.23;;;18.90;70.90;;;;;;5053421;28;20469;-57
2023/05/05 01:56:24;;;;;;;7.90;7.07;;;18.70;71.00;;;;;;5053279;28;20475;-57
2023/05/05 01:58:52;;;;;;;14.17;7.00;;;18.70;72.00;;;;;;5053577;28;20446;-57
2023/05/05 02:01:22;;;;;;;8.70;7.00;;;18.70;72.40;;;;;;5053385;28;20449;-57
2023/05/05 02:03:50;;;;;;;7.70;6.90;;;18.60;73.40;;;;;;5053031;28;20512;-57
2023/05/05 02:06:19;;;;;;;11.60;8.23;;;18.50;74.80;;;;;;5053373;28;20461;-57
2023/05/05 02:08:47;;;;;;;8.37;7.67;;;18.40;76.40;;;;;;5052876;28;20481;-57
2023/05/05 02:11:14;;;;;;;8.70;7.80;;;18.30;77.10;;;;;;5053194;28;20456;-57
2023/05/05 02:13:42;;;;;;;8.47;7.67;;;18.30;78.20;;;;;;5053187;28;20549;-57
2023/05/05 02:16:09;;;;;;;9.93;8.93;;;18.20;79.40;;;;;;5054718;28;20476;-57
2023/05/05 02:18:37;;;;;;;9.47;8.57;;;18.10;81.10;;;;;;5056891;28;20528;-57
2023/05/05 02:21:04;;;;;;;9.67;7.70;;;18.10;82.20;;;;;;5056844;28;20865;-57
2023/05/05 02:23:32;;;;;;;9.23;8.33;;;18.10;83.10;;;;;;5056725;28;21059;-57
2023/05/05 02:26:04;;;;;;;10.03;9.10;;;18.10;83.40;;;;;;5056993;28;20499;-57
2023/05/05 02:28:40;;;;;;;10.30;9.40;;;18.00;84.40;;;;;;5057625;28;20437;-57
2023/05/05 02:31:10;;;;;;;10.10;8.80;;;18.00;84.70;;;;;;5057023;28;20851;-57
2023/05/05 02:33:37;;;;;;;10.10;9.30;;;18.00;85.10;;;;;;5056649;28;21009;-57
2023/05/05 02:36:11;;;;;;;9.93;9.00;;;18.00;85.90;;;;;;5056819;28;20449;-56
2023/05/05 02:38:42;;;;;;;11.20;10.07;;;18.00;86.50;;;;;;5056883;28;20441;-57
2023/05/05 02:41:12;;;;;;;10.30;9.40;;;18.00;86.80;;;;;;5057364;28;20429;-57
2023/05/05 02:43:42;;;;;;;11.03;9.40;;;18.00;86.90;;;;;;5056806;28;20476;-57
2023/05/05 02:46:09;;;;;;;10.50;9.47;;;18.00;87.70;;;;;;5056666;28;20857;-57
2023/05/05 02:48:35;;;;;;;10.80;9.87;;;18.00;87.70;;;;;;5056570;28;20457;-57
2023/05/05 02:51:02;;;;;;;10.57;9.53;;;18.10;87.90;;;;;;5056582;28;20445;-57
2023/05/05 02:53:29;;;;;;;10.90;9.80;;;18.10;88.10;;;;;;5056487;28;20853;-57
2023/05/05 02:56:14;;;;;;;11.27;9.70;;;18.10;88.20;;;;;;5056501;28;20465;-57
2023/05/05 02:58:48;;;;;;;10.30;9.33;;;18.10;88.20;;;;;;5056506;28;20491;-57
2023/05/05 03:01:26;;;;;;;11.07;10.17;;;18.10;88.50;;;;;;5056441;28;20432;-57
2023/05/05 03:04:00;;;;;;;11.40;10.50;;;18.10;89.20;;;;;;5056381;28;20465;-57
2023/05/05 03:06:28;;;;;;;15.40;9.90;;;18.10;88.20;;;;;;5056028;28;20845;-57
2023/05/05 03:09:01;;;;;;;11.20;10.10;;;18.10;89.00;;;;;;5055150;28;20492;-57
2023/05/05 03:11:35;;;;;;;12.10;11.00;;;18.00;88.50;;;;;;5054723;28;20919;-57
2023/05/05 03:14:08;;;;;;;11.40;10.33;;;18.00;88.80;;;;;;5055015;28;20469;-57
2023/05/05 03:16:36;;;;;;;10.83;9.80;;;17.90;88.90;;;;;;5055031;28;20438;-57
2023/05/05 03:19:03;;;;;;;11.70;10.67;;;17.90;88.90;;;;;;5054858;28;20555;-57
2023/05/05 03:21:32;;;;;;;11.70;10.70;;;17.90;88.80;;;;;;5054858;28;20453;-57
2023/05/05 03:23:58;;;;;;;12.57;11.27;;;17.90;88.70;;;;;;5055386;28;20473;-57
2023/05/05 03:26:25;;;;;;;12.03;10.77;;;17.90;88.60;;;;;;5054398;28;20453;-57
2023/05/05 03:28:53;;;;;;;12.17;11.07;;;17.90;88.60;;;;;;5054661;28;20485;-57
2023/05/05 03:31:20;;;;;;;11.03;10.13;;;17.90;88.30;;;;;;5054380;28;20954;-57
2023/05/05 03:33:46;;;;;;;12.43;11.23;;;17.80;88.30;;;;;;5054602;28;20470;-57
2023/05/05 03:36:13;;;;;;;12.47;11.17;;;17.80;89.00;;;;;;5054627;28;20511;-57
2023/05/05 03:38:40;;;;;;;13.43;12.10;;;17.70;88.00;;;;;;5054579;28;20454;-57
2023/05/05 03:41:06;;;;;;;12.60;11.50;;;17.70;87.60;;;;;;5054433;28;20503;-57
2023/05/05 03:43:33;;;;;;;12.93;11.73;;;17.60;87.20;;;;;;5054402;28;20457;-57
2023/05/05 03:46:01;;;;;;;12.67;11.43;;;17.60;86.90;;;;;;5054426;28;20456;-57
2023/05/05 03:48:28;;;;;;;11.67;10.67;;;17.50;86.70;;;;;;5054401;28;20453;-57
2023/05/05 03:50:55;;;;;;;14.03;12.63;;;17.40;87.00;;;;;;5054348;28;20504;-57
2023/05/05 03:53:21;;;;;;;15.30;13.07;;;17.40;86.90;;;;;;5054294;28;20469;-57
2023/05/05 03:55:48;;;;;;;13.03;11.83;;;17.30;86.90;;;;;;5054379;28;20515;-57
2023/05/05 03:58:15;;;;;;;16.50;12.23;;;17.30;87.20;;;;;;5054284;28;20449;-57
2023/05/05 04:00:42;;;;;;;15.00;13.50;;;17.10;87.30;;;;;;5054191;28;20445;-57
2023/05/05 04:03:10;;;;;;;14.40;13.10;;;17.10;87.60;;;;;;5054221;28;20445;-57
2023/05/05 04:05:37;;;;;;;16.03;14.53;;;16.90;88.50;;;;;;5054017;28;20559;-57
2023/05/05 04:08:04;;;;;;;15.60;14.10;;;16.90;90.40;;;;;;5018149;28;1029310;-57
2023/05/05 04:10:31;;;;;;;16.20;13.17;;;16.80;91.20;;;;;;5054965;28;20215;-57
2023/05/05 04:12:58;;;;;;;17.00;14.23;;;16.80;91.40;;;;;;5054765;28;20456;-57
2023/05/05 04:15:24;;;;;;;18.63;15.10;;;16.80;91.70;;;;;;5054728;28;20469;-57
2023/05/05 04:17:51;;;;;;;16.50;14.70;;;16.70;91.70;;;;;;5054777;28;20971;-57
2023/05/05 04:20:20;;;;;;;16.33;13.10;;;16.70;91.80;;;;;;5054904;28;20449;-57
2023/05/05 04:22:47;;;;;;;21.00;14.10;;;16.70;92.30;;;;;;5054860;28;20461;-57
2023/05/05 04:25:13;;;;;;;24.63;14.53;;;16.70;92.20;;;;;;5054566;28;20999;-58
2023/05/05 04:27:40;;;;;;;17.03;14.63;;;16.80;92.30;;;;;;5055163;28;20442;-57
2023/05/05 04:30:08;;;;;;;16.83;14.17;;;16.90;92.40;;;;;;5056149;28;20478;-57
2023/05/05 04:32:35;;;;;;;16.00;14.30;;;16.90;92.40;;;;;;5055441;28;20445;-57
2023/05/05 04:35:02;;;;;;;16.07;13.97;;;16.90;92.60;;;;;;5055030;28;20478;-57
2023/05/05 04:37:30;;;;;;;14.83;13.40;;;16.90;92.70;;;;;;5054928;28;20484;-57
2023/05/05 04:39:57;;;;;;;17.20;13.80;;;16.90;92.50;;;;;;5054162;28;20504;-57
2023/05/05 04:42:24;;;;;;;15.87;14.23;;;16.90;92.20;;;;;;5054771;28;20450;-57
2023/05/05 04:44:51;;;;;;;18.53;12.23;;;16.90;92.00;;;;;;5054665;28;20587;-57
2023/05/05 04:47:18;;;;;;;14.60;13.07;;;16.90;91.70;;;;;;5054573;28;20453;-57
2023/05/05 04:49:44;;;;;;;14.33;12.93;;;16.90;91.50;;;;;;5054524;28;20481;-57
2023/05/05 04:52:12;;;;;;;14.70;13.13;;;16.90;91.50;;;;;;5054096;28;20488;-57
2023/05/05 04:54:40;;;;;;;13.30;11.90;;;16.90;91.50;;;;;;5054229;28;20465;-57
2023/05/05 04:57:07;;;;;;;16.10;12.60;;;16.80;91.40;;;;;;5054535;28;20441;-57
2023/05/05 04:59:35;;;;;;;15.80;11.93;;;16.80;91.70;;;;;;5054497;28;20511;-58
2023/05/05 05:02:02;;;;;;;14.23;12.73;;;16.80;92.00;;;;;;5054800;28;20507;-57
2023/05/05 05:04:28;;;;;;;13.93;11.97;;;16.90;92.10;;;;;;5054102;28;20466;-57
2023/05/05 05:06:55;;;;;;;14.30;12.20;;;16.90;92.00;;;;;;5054213;28;20655;-57
2023/05/05 05:09:22;;;;;;;12.57;11.27;;;17.00;91.90;;;;;;5053905;28;20461;-57
2023/05/05 05:11:50;;;;;;;13.37;11.97;;;17.10;92.00;;;;;;5053831;28;20456;-57
2023/05/05 05:14:16;;;;;;;12.90;11.63;;;17.10;91.80;;;;;;5054084;28;20466;-58
2023/05/05 05:16:43;;;;;;;12.43;11.17;;;17.20;91.60;;;;;;5053942;28;20446;-58
2023/05/05 05:19:10;;;;;;;14.70;12.33;;;17.20;91.60;;;;;;5053625;28;20460;-58
2023/05/05 05:21:36;;;;;;;11.63;10.43;;;17.30;91.50;;;;;;5053616;28;20971;-58
2023/05/05 05:24:03;;;;;;;10.90;9.87;;;17.30;91.60;;;;;;5053899;28;20491;-58
2023/05/05 05:26:30;;;;;;;11.97;10.73;;;17.40;91.60;;;;;;5053732;28;20445;-58
2023/05/05 05:28:58;;;;;;;10.80;9.80;;;17.40;91.60;;;;;;5053465;28;20446;-58
2023/05/05 05:31:25;;;;;;;13.63;12.10;;;17.40;91.50;;;;;;5053578;28;20503;-58
2023/05/05 05:33:51;;;;;;;11.63;10.53;;;17.40;91.50;;;;;;5053465;28;21032;-58
2023/05/05 05:36:18;;;;;;;15.73;10.80;;;17.50;91.60;;;;;;5053344;28;20962;-58
2023/05/05 05:38:45;;;;;;;12.17;10.97;;;17.50;91.70;;;;;;5053669;28;20453;-57
2023/05/05 05:41:12;;;;;;;15.33;11.80;;;17.50;91.70;;;;;;5053548;28;20449;-58
2023/05/05 05:43:40;;;;;;;12.67;11.30;;;17.50;91.70;;;;;;5053190;28;20445;-58
2023/05/05 05:46:08;;;;;;;13.03;11.40;;;17.50;91.70;;;;;;5053537;28;20530;-57
2023/05/05 05:48:35;;;;;;;15.10;12.00;;;17.60;91.90;;;;;;5053453;28;20456;-58
2023/05/05 05:51:01;;;;;;;16.30;13.03;;;17.60;92.00;;;;;;5053143;28;20535;-58
2023/05/05 05:53:28;;;;;;;23.00;12.93;;;17.70;92.30;;;;;;5053301;28;20481;-58
2023/05/05 05:55:55;;;;;;;14.93;13.40;;;17.70;92.30;;;;;;5053378;28;20454;-58
2023/05/05 05:58:21;;;;;;;24.00;14.00;;;17.80;92.40;;;;;;5053201;28;20795;-58
2023/05/05 06:00:48;;;;;;;15.50;12.13;;;17.80;92.40;;;;;;5053394;28;20456;-58
2023/05/05 06:03:16;;;;;;;15.23;11.67;;;17.90;92.20;;;;;;5052889;28;21074;-58
2023/05/05 06:05:44;;;;;;;13.50;12.00;;;17.90;92.00;;;;;;5053110;28;20458;-58
2023/05/05 06:08:11;;;;;;;15.00;11.80;;;18.10;92.00;;;;;;5052921;28;20465;-58
2023/05/05 06:10:38;;;;;;;18.03;12.17;;;18.10;92.10;;;;;;5053151;28;20462;-58
2023/05/05 06:13:05;;;;;;;14.63;12.00;;;18.20;92.00;;;;;;5053149;28;20868;-58
2023/05/05 06:15:32;;;;;;;13.07;11.80;;;18.30;91.90;;;;;;5053043;28;20469;-58
2023/05/05 06:17:58;;;;;;;16.03;12.37;;;18.40;91.70;;;;;;5052877;28;20947;-58
2023/05/05 06:20:26;;;;;;;14.40;12.23;;;18.60;91.60;;;;;;5053113;28;20472;-58
2023/05/05 06:22:53;;;;;;;27.80;15.43;;;18.70;91.70;;;;;;5053697;28;20575;-58
2023/05/05 06:25:20;;;;;;;15.03;11.47;;;18.80;91.80;;;;;;5052653;28;20873;-58
2023/05/05 06:27:46;;;;;;;16.53;12.90;;;18.90;92.00;;;;;;5053054;28;20456;-58
2023/05/05 06:30:14;;;;;;;14.20;12.80;;;18.90;91.50;;;;;;5052583;28;21021;-58
2023/05/05 06:32:41;;;;;;;19.60;13.27;;;19.00;91.40;;;;;;5052918;28;20484;-58
2023/05/05 06:35:08;;;;;;;17.17;12.07;;;19.00;91.40;;;;;;5052915;28;20473;-58
2023/05/05 06:37:36;;;;;;;21.33;13.37;;;19.10;91.40;;;;;;5052922;28;20520;-57
2023/05/05 06:40:03;;;;;;;14.73;13.30;;;19.20;91.30;;;;;;5052501;28;20448;-58
2023/05/05 06:42:31;;;;;;;15.17;13.53;;;19.30;91.40;;;;;;5052796;28;20452;-58
2023/05/05 06:44:57;;;;;;;16.93;13.20;;;19.50;91.10;;;;;;5052794;28;20481;-58
2023/05/05 06:47:24;;;;;;;15.00;12.67;;;19.60;90.80;;;;;;5052841;28;20445;-58
2023/05/05 06:49:51;;;;;;;16.00;14.10;;;19.70;90.50;;;;;;5052741;28;20909;-58
2023/05/05 06:52:18;;;;;;;22.77;14.00;;;19.90;90.10;;;;;;5052770;28;20471;-58
2023/05/05 06:54:46;;;;;;;17.03;12.83;;;20.00;89.70;;;;;;5052697;28;20519;-58
2023/05/05 06:57:12;;;;;;;18.83;14.03;;;20.20;88.90;;;;;;5052734;28;20506;-58
2023/05/05 06:59:39;;;;;;;16.53;14.40;;;20.30;87.80;;;;;;5052775;28;20450;-58
2023/05/05 07:02:06;;;;;;;16.70;13.90;;;20.40;87.40;;;;;;5053911;28;20445;-57
2023/05/05 07:04:33;;;;;;;14.80;13.13;;;20.40;85.20;;;;;;5056434;28;20832;-58
2023/05/05 07:07:00;;;;;;;19.60;15.93;;;20.40;85.30;;;;;;5056376;28;20449;-59
2023/05/05 07:09:26;;;;;;;18.80;12.90;;;20.50;85.30;;;;;;5056846;28;20816;-58
2023/05/05 07:11:54;;;;;;;17.60;14.60;;;20.50;85.30;;;;;;5056331;28;20504;-58
2023/05/05 07:14:21;;;;;;;18.93;14.50;;;20.50;85.70;;;;;;5056170;28;20466;-58
2023/05/05 07:16:48;;;;;;;20.43;14.33;;;20.60;86.20;;;;;;5056240;28;20457;-58
2023/05/05 07:19:15;;;;;;;16.90;14.53;;;20.70;86.50;;;;;;5056539;28;20456;-58
2023/05/05 07:21:42;;;;;;;16.50;14.80;;;20.70;86.50;;;;;;5056055;28;20456;-58
2023/05/05 07:24:09;;;;;;;14.60;13.10;;;20.80;87.00;;;;;;5057035;28;20527;-58
2023/05/05 07:26:36;;;;;;;16.30;14.00;;;20.80;85.70;;;;;;5056816;28;20457;-58
2023/05/05 07:29:05;;;;;;;14.93;13.43;;;20.90;85.50;;;;;;5056004;28;20449;-58
2023/05/05 07:31:32;;;;;;;17.87;15.03;;;21.10;85.00;;;;;;5055942;28;20477;-58
2023/05/05 07:33:59;;;;;;;19.30;14.60;;;21.30;84.70;;;;;;5055935;28;20511;-58
2023/05/05 07:36:27;;;;;;;18.83;14.50;;;21.30;83.00;;;;;;5055550;28;20973;-58
2023/05/05 07:38:54;;;;;;;13.50;12.20;;;21.40;83.10;;;;;;5057056;28;20493;-57
2023/05/05 07:41:20;;;;;;;13.03;11.87;;;21.30;81.20;;;;;;5056658;28;20499;-57
2023/05/05 07:43:47;;;;;;;13.00;11.67;;;21.20;81.10;;;;;;5056477;28;20491;-57
2023/05/05 07:46:15;;;;;;;12.17;11.13;;;21.10;81.00;;;;;;5055967;28;20461;-57
2023/05/05 07:48:42;;;;;;;12.13;10.93;;;21.00;81.50;;;;;;5055618;28;20815;-57
2023/05/05 07:51:09;;;;;;;13.80;11.17;;;21.00;82.00;;;;;;5055482;28;20485;-57
2023/05/05 07:53:36;;;;;;;11.83;8.90;;;21.00;83.00;;;;;;5055466;28;20489;-57
2023/05/05 07:56:03;;;;;;;10.63;9.63;;;21.10;82.80;;;;;;5055458;28;20445;-57
2023/05/05 07:58:29;;;;;;;10.20;9.30;;;21.20;82.00;;;;;;5055536;28;20457;-57
2023/05/05 08:00:56;;;;;;;7.90;7.10;;;21.40;81.60;;;;;;5055400;28;20445;-57
2023/05/05 08:03:24;;;;;;;10.20;9.20;;;21.50;79.70;;;;;;5055318;28;20449;-57
2023/05/05 08:05:53;;;;;;;9.23;8.40;;;21.50;77.80;;;;;;5054958;28;20867;-57
2023/05/05 08:08:23;;;;;;;10.67;8.70;;;21.50;78.50;;;;;;5054932;28;20465;-57
2023/05/05 08:10:50;;;;;;;8.33;7.53;;;21.60;78.70;;;;;;5054795;28;20995;-57
2023/05/05 08:13:16;;;;;;;9.77;6.80;;;21.60;79.10;;;;;;5053910;28;20441;-57
2023/05/05 08:15:43;;;;;;;7.00;6.30;;;21.70;78.10;;;;;;5054904;28;20469;-57
2023/05/05 08:18:10;;;;;;;7.60;6.80;;;21.80;76.80;;;;;;5055042;28;20449;-57
2023/05/05 08:20:38;;;;;;;6.50;5.87;;;21.90;77.30;;;;;;5054956;28;20442;-57
2023/05/05 08:23:05;;;;;;;6.73;5.53;;;22.00;78.00;;;;;;5054911;28;20449;-57
2023/05/05 08:25:31;;;;;;;7.47;5.80;;;22.20;77.10;;;;;;5054850;28;20476;-57
2023/05/05 08:27:58;;;;;;;6.60;5.90;;;22.30;75.50;;;;;;5055460;28;20461;-57
2023/05/05 08:30:25;;;;;;;9.23;5.87;;;22.40;73.70;;;;;;5054838;28;20454;-57
2023/05/05 08:32:51;;;;;;;7.07;6.27;;;22.50;75.40;;;;;;5054803;28;20456;-57
2023/05/05 08:35:18;;;;;;;7.40;4.77;;;22.70;73.10;;;;;;5054665;28;20474;-57
2023/05/05 08:37:46;;;;;;;7.20;5.80;;;22.90;71.60;;;;;;5054719;28;20446;-57
2023/05/05 08:40:14;;;;;;;7.60;6.00;;;23.20;69.90;;;;;;5054638;28;20495;-57
2023/05/05 08:42:41;;;;;;;8.50;5.03;;;23.50;69.80;;;;;;5054557;28;20449;-57
2023/05/05 08:45:09;;;;;;;7.97;7.17;;;23.90;68.30;;;;;;5054451;28;20461;-57
2023/05/05 08:47:37;;;;;;;5.17;4.60;;;24.20;65.10;;;;;;5054553;28;20468;-57
2023/05/05 08:50:05;;;;;;;5.07;4.10;;;24.50;64.20;;;;;;5054105;28;20957;-57
2023/05/05 08:52:38;;;;;;;4.17;3.67;;;24.60;63.40;;;;;;5054319;28;20924;-57
2023/05/05 08:55:17;;;;;;;5.63;4.40;;;24.60;60.10;;;;;;5054432;28;20466;-57
2023/05/05 08:57:50;;;;;;;4.87;4.47;;;24.60;59.50;;;;;;5054365;28;20433;-57
2023/05/05 09:00:18;;;;;;;5.70;5.13;;;24.70;59.70;;;;;;5054360;28;20430;-57
2023/05/05 09:02:46;;;;;;;7.47;6.87;;;24.90;60.60;;;;;;5054284;28;20445;-57
2023/05/05 09:05:13;;;;;;;7.13;5.50;;;25.20;59.50;;;;;;5053879;28;20870;-58
2023/05/05 09:07:42;;;;;;;6.30;5.70;;;25.50;58.90;;;;;;5054021;28;20453;-58
2023/05/05 09:10:11;;;;;;;6.30;5.77;;;25.80;57.00;;;;;;5054252;28;20484;-58
2023/05/05 09:12:40;;;;;;;5.47;4.93;;;25.90;55.90;;;;;;5054018;28;20485;-57
2023/05/05 09:15:08;;;;;;;9.70;5.47;;;26.00;55.40;;;;;;5054010;28;20473;-57
2023/05/05 09:17:34;;;;;;;5.70;4.83;;;26.20;54.30;;;;;;5054148;28;20792;-57
2023/05/05 09:20:03;;;;;;;8.30;5.03;;;26.40;53.80;;;;;;5053785;28;20446;-58
2023/05/05 09:22:35;;;;;;;5.30;4.67;;;26.80;53.50;;;;;;5053591;28;21012;-57
2023/05/05 09:25:02;;;;;;;5.73;5.13;;;27.10;53.20;;;;;;5053650;28;20508;-57
2023/05/05 09:27:30;;;;;;;5.10;4.60;;;27.50;53.20;;;;;;5053941;28;20583;-58
2023/05/05 09:29:57;;;;;;;5.20;4.63;;;27.90;51.70;;;;;;5054339;28;20838;-58
2023/05/05 09:32:24;;;;;;;6.73;4.77;;;28.20;48.70;;;;;;5053691;28;20489;-57
2023/05/05 09:34:58;;;;;;;5.90;4.73;;;28.40;48.20;;;;;;5053643;28;20473;-58
2023/05/05 09:37:29;;;;;;;4.90;4.50;;;28.60;46.90;;;;;;5053523;28;20553;-58
2023/05/05 09:39:57;;;;;;;5.30;4.90;;;28.60;44.70;;;;;;5053498;28;20453;-57
2023/05/05 09:42:24;;;;;;;7.40;6.80;;;28.70;45.60;;;;;;5053520;28;20441;-57
2023/05/05 09:44:52;;;;;;;6.77;6.10;;;28.50;45.50;;;;;;5053479;28;20469;-58
2023/05/05 09:47:20;;;;;;;9.17;7.07;;;28.40;45.40;;;;;;5053442;28;20453;-58
2023/05/05 09:49:57;;;;;;;8.03;5.47;;;28.30;45.90;;;;;;5053332;28;20461;-58
2023/05/05 09:52:24;;;;;;;7.43;6.67;;;28.10;46.70;;;;;;5053287;28;20465;-57
2023/05/05 09:54:54;;;;;;;8.63;6.70;;;28.00;46.90;;;;;;5053263;28;20469;-57
2023/05/05 09:57:28;;;;;;;9.30;8.40;;;27.90;47.20;;;;;;5053312;28;20450;-57
2023/05/05 09:59:58;;;;;;;8.53;7.73;;;27.90;46.80;;;;;;5053200;28;20547;-57
2023/05/05 10:02:32;;;;;;;8.10;6.40;;;28.00;46.40;;;;;;5053223;28;20441;-57
2023/05/05 10:05:07;;;;;;;11.63;6.83;;;28.00;46.10;;;;;;5053175;28;20496;-58
2023/05/05 10:07:37;;;;;;;6.50;5.17;;;28.20;46.00;;;;;;5053056;28;20452;-58
2023/05/05 10:10:06;;;;;;;5.70;5.20;;;28.30;45.10;;;;;;5053123;28;20438;-58
2023/05/05 10:12:35;;;;;;;8.80;5.07;;;28.50;45.30;;;;;;5053122;28;20829;-57
2023/05/05 10:15:04;;;;;;;5.83;4.80;;;28.60;45.70;;;;;;5053038;28;20500;-58
2023/05/05 10:17:32;;;;;;;8.07;6.00;;;28.90;44.10;;;;;;5053065;28;20445;-58
2023/05/05 10:20:02;;;;;;;10.90;5.60;;;29.00;43.80;;;;;;5053031;28;20536;-58
2023/05/05 10:22:32;;;;;;;4.57;4.13;;;29.20;43.60;;;;;;5053122;28;20483;-58
2023/05/05 10:25:03;;;;;;;5.83;3.50;;;29.30;42.80;;;;;;5053063;28;20507;-58
2023/05/05 10:27:38;;;;;;;6.10;4.30;;;29.40;42.50;;;;;;5052746;28;20429;-58
2023/05/05 10:30:07;;;;;;;4.53;3.63;;;29.40;42.10;;;;;;5053064;28;20425;-57
2023/05/05 10:32:41;;;;;;;5.40;4.57;;;29.30;42.60;;;;;;5053255;28;20522;-58
2023/05/05 10:35:09;;;;;;;4.53;3.90;;;29.10;41.60;;;;;;5052905;28;20469;-58
2023/05/05 10:37:38;;;;;;;7.00;4.33;;;28.60;42.40;;;;;;5055117;28;20461;-57
2023/05/05 10:40:07;;;;;;;5.07;4.37;;;28.10;42.80;;;;;;5056830;28;20457;-58
2023/05/05 10:42:35;;;;;;;4.90;3.77;;;27.70;44.60;;;;;;5057319;28;20939;-57
2023/05/05 10:45:02;;;;;;;6.00;4.73;;;27.40;45.60;;;;;;5057142;28;20465;-57
2023/05/05 10:47:31;;;;;;;6.40;5.27;;;27.10;46.90;;;;;;5057027;28;20449;-57
2023/05/05 10:50:06;;;;;;;5.03;4.63;;;26.90;46.60;;;;;;5058107;28;20460;-57
2023/05/05 10:52:38;;;;;;;5.53;5.03;;;26.50;46.90;;;;;;5058529;28;20468;-57
2023/05/05 10:55:12;;;;;;;6.00;4.90;;;26.30;48.10;;;;;;5057931;28;20469;-57
2023/05/05 10:57:41;;;;;;;5.57;4.27;;;25.90;49.00;;;;;;5057413;28;20440;-57
2023/05/05 11:00:09;;;;;;;4.73;4.23;;;25.70;50.20;;;;;;5057055;28;20817;-57
2023/05/05 11:02:38;;;;;;;4.37;3.97;;;25.40;50.60;;;;;;5056966;28;20460;-57
2023/05/05 11:05:16;;;;;;;8.67;5.20;;;25.30;52.40;;;;;;5057207;28;20547;-57
2023/05/05 11:07:43;;;;;;;4.77;4.37;;;24.80;51.90;;;;;;5056562;28;20429;-57
2023/05/05 11:10:12;;;;;;;5.30;3.93;;;24.50;52.90;;;;;;5056923;28;20425;-57
2023/05/05 11:13:19;;;;;;;4.20;2.93;;;24.10;53.40;;;;;;5056566;28;20484;-57
2023/05/05 11:15:47;;;;;;;5.60;2.90;;;23.90;54.00;;;;;;5056136;28;20935;-57
2023/05/05 11:18:35;;;;;;;3.67;2.90;;;23.70;54.20;;;;;;5056348;28;20506;-57
2023/05/05 11:21:16;;;;;;;3.10;2.80;;;23.50;54.70;;;;;;5056180;28;20442;-57
2023/05/05 11:23:45;;;;;;;3.10;2.80;;;23.40;56.40;;;;;;5056261;28;20469;-57
2023/05/05 11:26:12;;;;;;;3.20;2.90;;;23.30;56.10;;;;;;5056158;28;20445;-57
2023/05/05 11:28:57;;;;;;;3.93;3.27;;;23.20;56.90;;;;;;5055713;28;20445;-57
2023/05/05 11:31:23;;;;;;;6.50;3.20;;;23.20;58.20;;;;;;5055840;28;20458;-57
2023/05/05 11:33:51;;;;;;;4.13;2.70;;;23.10;57.20;;;;;;5055869;28;20466;-57
2023/05/05 11:36:20;;;;;;;4.80;2.70;;;22.90;57.60;;;;;;5055864;28;20442;-57
2023/05/05 11:39:11;;;;;;;5.70;3.53;;;22.80;59.10;;;;;;5055871;28;20456;-57
2023/05/05 11:42:00;;;;;;;7.20;3.30;;;22.60;59.50;;;;;;5055943;28;20429;-57
2023/05/05 11:44:31;;;;;;;4.33;3.77;;;22.50;59.80;;;;;;5046281;28;21009;-57
2023/05/05 11:47:28;;;;;;;6.00;3.40;;;22.40;60.40;;;;;;5055361;28;20967;-57
2023/05/05 11:49:57;;;;;;;4.43;4.03;;;22.40;62.70;;;;;;5055298;28;20908;-57
2023/05/05 11:52:26;;;;;;;5.77;3.70;;;22.50;62.50;;;;;;5055495;28;20478;-57
2023/05/05 11:54:52;;;;;;;6.30;3.63;;;22.50;63.00;;;;;;5055371;28;20473;-57
2023/05/05 11:57:26;;;;;;;7.10;5.17;;;22.80;62.50;;;;;;5055166;28;21078;-57
2023/05/05 11:59:54;;;;;;;4.70;4.00;;;23.00;62.60;;;;;;5055457;28;20445;-57
2023/05/05 12:02:22;;;;;;;5.67;4.57;;;23.40;63.20;;;;;;5055321;28;20540;-57
2023/05/05 12:04:50;;;;;;;4.70;4.03;;;23.90;61.00;;;;;;5055249;28;20465;-57
2023/05/05 12:07:20;;;;;;;3.63;3.20;;;24.10;57.50;;;;;;5055189;28;20449;-57
2023/05/05 12:09:48;;;;;;;4.33;3.53;;;24.40;57.20;;;;;;5055141;28;20460;-57
2023/05/05 12:12:16;;;;;;;3.30;3.10;;;24.60;56.20;;;;;;5054787;28;20856;-57
2023/05/05 12:14:49;;;;;;;8.10;3.17;;;24.70;55.30;;;;;;5054742;28;20465;-57
2023/05/05 12:17:15;;;;;;;3.83;3.53;;;24.90;54.80;;;;;;5055053;28;20525;-57
2023/05/05 12:19:46;;;;;;;7.30;3.97;;;25.20;54.10;;;;;;5054974;28;20450;-57
2023/05/05 12:22:20;;;;;;;3.80;3.30;;;25.30;53.20;;;;;;5055521;28;20449;-57
2023/05/05 12:24:55;;;;;;;2.93;1.57;;;25.50;54.10;;;;;;5055435;28;20474;-57
2023/05/05 12:27:22;;;;;;;4.40;1.30;;;26.00;50.80;;;;;;5054947;28;20446;-57
2023/05/05 12:29:49;;;;;;;1.67;1.43;;;26.20;48.50;;;;;;5054857;28;20453;-57
2023/05/05 12:32:24;;;;;;;1.20;1.10;;;26.30;47.70;;;;;;5054718;28;20478;-57
2023/05/05 12:34:56;;;;;;;4.00;1.60;;;26.20;48.10;;;;;;5054709;28;20465;-57
2023/05/05 12:37:25;;;;;;;4.10;1.60;;;26.30;47.70;;;;;;5054466;28;20927;-57
2023/05/05 12:39:53;;;;;;;3.97;1.97;;;26.20;49.00;;;;;;5054618;28;20454;-57
2023/05/05 12:42:21;;;;;;;2.73;1.60;;;26.00;48.60;;;;;;5054527;28;20453;-57
2023/05/05 12:44:48;;;;;;;5.07;1.90;;;26.00;49.00;;;;;;5054156;28;20998;-57
2023/05/05 12:47:15;;;;;;;3.80;1.80;;;25.80;48.50;;;;;;5054486;28;20460;-57